Forside
METAR-TAF:

METAR-TAF

Lufthavne :

St. Paul Downtown Airport (Holman Field)

Saint Paul, Minnesota, USA

Breddekreds: 44-55-49N, længdekreds: 093-02-53W, højde: 214 m

Aktuelle vejr

Denne rapport blev lavet for 14 minutter siden, kl. 00:53 UTC
Vind 8 kt fra vestsydvest
Temperatur -19°C
Fugtighed 64%
Tryk 1025 hPa
Sigt: 16.1 km
skyfri

METAR: KSTP 110053Z 25008KT 10SM CLR M19/M24 A3027 RMK AO2 SLP269 T11891239 $

Tid: 19:07 (01:07 UTC)


TAF: fraværende

Vejrobservationer og prognoser fra mere end 4000 lufthavne (METAR og TAF).

De gule og røde prikker repræsenterer de meteorologiske stationer.

Flyt musen over at se navnet på stationen.

Så klik over at se vejr observationer og prognoser.

At skifte det kort: Klik på de grønne knapper med et sort kors for at zoome ind; på den grønne knap med en bindestreg for at zoome ud; eller på de grønne pile for tilstødende kort.


METAR-TAF: